Time;durP1;ratioP1;P1;durP2;ratioP2;P2;SDS_P1;SDS_P2;PMS_P1;PMS_P2;Temp;Humidity;BMP_temperature;BMP_pressure;BME280_temperature;BME280_humidity;BME280_pressure;Samples;Min_cycle;Max_cycle;Signal;HPM_P1;HPM_P2
2023/01/23 00:01:48;;;;;;;29.47;16.27;;;4.00;99.90;;;;;;5078633;28;20184;-58
2023/01/23 00:04:14;;;;;;;29.37;15.93;;;;;;;;;;5072722;28;20234;-58
2023/01/23 00:06:40;;;;;;;32.53;16.73;;;3.80;99.90;;;;;;5072386;28;20176;-58
2023/01/23 00:09:06;;;;;;;34.20;16.77;;;3.90;99.90;;;;;;5086865;28;20549;-58
2023/01/23 00:11:33;;;;;;;30.90;17.33;;;;;;;;;;5086732;28;20240;-58
2023/01/23 00:14:00;;;;;;;31.37;16.63;;;;;;;;;;5077682;28;20172;-58
2023/01/23 00:16:27;;;;;;;33.93;16.73;;;;;;;;;;5078106;28;20168;-58
2023/01/23 00:18:53;;;;;;;31.33;16.50;;;;;;;;;;5070413;28;20621;-58
2023/01/23 00:21:20;;;;;;;31.10;17.27;;;;;;;;;;5063114;28;20208;-58
2023/01/23 00:23:52;;;;;;;32.23;16.77;;;3.90;99.90;;;;;;5072202;28;20535;-58
2023/01/23 00:26:23;;;;;;;36.33;17.40;;;3.60;99.90;;;;;;5072196;28;20184;-58
2023/01/23 00:28:49;;;;;;;33.77;17.13;;;3.70;99.90;;;;;;5072155;28;20793;-59
2023/01/23 00:31:18;;;;;;;32.17;17.13;;;3.70;99.90;;;;;;5071755;28;20320;-58
2023/01/23 00:33:44;;;;;;;37.67;16.00;;;3.70;99.90;;;;;;5078867;28;20180;-58
2023/01/23 00:36:12;;;;;;;30.53;16.20;;;3.40;99.90;;;;;;5077202;28;20183;-58
2023/01/23 00:38:38;;;;;;;27.43;15.47;;;3.80;99.90;;;;;;5084072;28;20654;-59
2023/01/23 00:41:04;;;;;;;27.40;15.53;;;3.70;99.90;;;;;;5080591;28;20211;-58
2023/01/23 00:43:30;;;;;;;29.63;14.90;;;3.70;99.90;;;;;;5076262;28;20210;-58
2023/01/23 00:45:56;;;;;;;26.07;14.97;;;;;;;;;;5089645;28;20182;-58
2023/01/23 00:48:21;;;;;;;28.63;14.83;;;3.70;99.90;;;;;;5071911;28;20173;-59
2023/01/23 00:50:47;;;;;;;27.97;15.40;;;3.40;99.90;;;;;;5079139;28;20307;-58
2023/01/23 00:53:13;;;;;;;27.30;15.50;;;3.30;99.90;;;;;;5071511;28;20195;-58
2023/01/23 00:55:40;;;;;;;26.23;15.33;;;3.80;99.90;;;;;;5071576;28;20187;-58
2023/01/23 00:58:07;;;;;;;26.50;15.87;;;3.70;99.90;;;;;;5083123;28;20184;-58
2023/01/23 01:00:33;;;;;;;25.50;14.07;;;3.60;99.90;;;;;;5071838;28;20176;-58
2023/01/23 01:02:59;;;;;;;31.17;15.17;;;3.70;99.90;;;;;;5052371;28;20275;-57
2023/01/23 01:05:24;;;;;;;23.27;14.37;;;3.50;99.90;;;;;;5071622;28;20267;-57
2023/01/23 01:07:50;;;;;;;27.13;14.30;;;4.20;99.90;;;;;;5081453;28;20172;-57
2023/01/23 01:10:16;;;;;;;24.87;13.90;;;3.60;99.90;;;;;;5072920;28;20330;-57
2023/01/23 01:12:42;;;;;;;27.33;15.03;;;;;;;;;;5059038;28;20185;-55
2023/01/23 01:15:09;;;;;;;24.47;14.27;;;3.80;99.90;;;;;;5064954;28;20186;-57
2023/01/23 01:17:35;;;;;;;24.67;14.43;;;3.60;99.90;;;;;;5075909;28;20172;-57
2023/01/23 01:20:02;;;;;;;26.30;15.07;;;3.50;99.90;;;;;;5053003;28;20323;-57
2023/01/23 01:22:28;;;;;;;28.97;14.60;;;3.70;99.90;;;;;;5071090;28;20164;-58
2023/01/23 01:24:54;;;;;;;30.10;15.17;;;3.50;99.90;;;;;;5071202;28;20625;-57
2023/01/23 01:27:19;;;;;;;24.73;14.47;;;3.30;99.90;;;;;;5070967;28;20180;-57
2023/01/23 01:29:45;;;;;;;24.47;15.03;;;3.70;99.90;;;;;;5070982;28;20643;-57
2023/01/23 01:32:10;;;;;;;27.73;14.93;;;3.30;99.90;;;;;;5070958;28;20220;-56
2023/01/23 01:34:36;;;;;;;26.73;14.47;;;3.30;99.90;;;;;;5070931;28;20177;-57
2023/01/23 01:37:02;;;;;;;28.33;15.50;;;3.20;99.90;;;;;;5070869;28;20176;-57
2023/01/23 01:39:27;;;;;;;25.87;14.37;;;3.20;99.90;;;;;;5070912;28;20690;-56
2023/01/23 01:41:53;;;;;;;27.47;15.67;;;2.90;99.90;;;;;;5069613;28;20168;-57
2023/01/23 01:44:21;;;;;;;28.60;15.43;;;3.10;99.90;;;;;;5070809;28;20259;-57
2023/01/23 01:46:47;;;;;;;24.93;14.63;;;3.20;99.90;;;;;;5079555;28;20682;-57
2023/01/23 01:49:29;;;;;;;25.27;14.93;;;3.10;99.90;;;;;;5090886;28;20293;-57
2023/01/23 01:52:05;;;;;;;26.70;15.20;;;3.40;99.90;;;;;;5082011;28;20212;-57
2023/01/23 01:54:39;;;;;;;27.87;15.73;;;3.00;99.90;;;;;;5081600;28;20241;-57
2023/01/23 01:57:19;;;;;;;26.53;15.73;;;3.20;99.90;;;;;;5090044;28;20642;-57
2023/01/23 01:59:48;;;;;;;25.57;15.37;;;3.20;99.90;;;;;;5069615;28;20242;-57
2023/01/23 02:02:31;;;;;;;25.03;15.57;;;3.00;99.90;;;;;;5069088;28;20255;-57
2023/01/23 02:05:02;;;;;;;28.47;16.53;;;3.30;99.90;;;;;;5075526;28;20219;-57
2023/01/23 02:07:57;;;;;;;29.07;16.10;;;2.90;99.90;;;;;;5067759;28;20169;-58
2023/01/23 02:10:23;;;;;;;36.27;16.50;;;3.10;99.90;;;;;;5067447;28;20240;-57
2023/01/23 02:12:51;;;;;;;33.97;17.03;;;3.10;99.90;;;;;;5068193;28;20204;-57
2023/01/23 02:15:18;;;;;;;30.87;17.00;;;3.30;99.90;;;;;;5052434;28;20183;-57
2023/01/23 02:17:45;;;;;;;31.07;15.63;;;3.10;99.90;;;;;;5073229;28;20182;-57
2023/01/23 02:20:25;;;;;;;27.37;15.60;;;3.10;99.90;;;;;;5070221;28;20247;-57
2023/01/23 02:23:02;;;;;;;27.27;15.43;;;2.90;99.90;;;;;;5068058;28;20176;-57
2023/01/23 02:25:48;;;;;;;28.97;15.33;;;2.90;99.90;;;;;;5070130;28;20288;-57
2023/01/23 02:28:15;;;;;;;32.50;17.03;;;2.80;99.90;;;;;;5070225;28;20181;-57
2023/01/23 02:30:45;;;;;;;28.03;14.87;;;2.80;99.90;;;;;;5070267;28;20200;-57
2023/01/23 02:33:21;;;;;;;30.80;15.37;;;2.70;99.90;;;;;;5070136;28;20184;-57
2023/01/23 02:35:46;;;;;;;26.83;14.40;;;2.70;99.90;;;;;;5070261;28;20207;-56
2023/01/23 02:38:13;;;;;;;30.77;16.00;;;2.50;99.90;;;;;;5070273;28;20571;-57
2023/01/23 02:40:41;;;;;;;27.50;16.00;;;2.40;99.90;;;;;;5074310;28;20172;-56
2023/01/23 02:43:11;;;;;;;28.83;15.53;;;2.50;99.90;;;;;;5074301;28;20177;-56
2023/01/23 02:45:37;;;;;;;29.63;16.13;;;2.50;99.90;;;;;;5074025;28;20172;-58
2023/01/23 02:48:04;;;;;;;25.53;15.07;;;2.50;99.90;;;;;;5088622;28;20164;-58
2023/01/23 02:50:30;;;;;;;27.47;15.47;;;2.40;99.90;;;;;;5091034;28;20295;-58
2023/01/23 02:52:57;;;;;;;31.23;15.97;;;2.30;99.90;;;;;;5079379;28;20263;-58
2023/01/23 02:55:25;;;;;;;28.27;15.63;;;2.30;99.90;;;;;;5091539;28;20286;-58
2023/01/23 02:57:51;;;;;;;27.10;15.23;;;2.30;99.90;;;;;;5073580;28;20176;-58
2023/01/23 03:00:21;;;;;;;29.70;15.97;;;2.30;99.90;;;;;;5036991;28;20193;-58
2023/01/23 03:02:49;;;;;;;35.33;16.27;;;2.30;99.90;;;;;;5061449;28;20181;-58
2023/01/23 03:05:16;;;;;;;26.80;15.43;;;2.20;99.90;;;;;;5066436;28;20214;-57
2023/01/23 03:07:42;;;;;;;27.33;15.80;;;2.30;99.90;;;;;;5075690;28;20192;-58
2023/01/23 03:10:09;;;;;;;26.57;15.53;;;2.10;99.90;;;;;;5085928;28;20218;-58
2023/01/23 03:12:41;;;;;;;25.60;15.63;;;1.80;99.90;;;;;;5085472;28;20176;-58
2023/01/23 03:15:07;;;;;;;27.50;16.13;;;1.90;99.90;;;;;;5062549;28;20160;-58
2023/01/23 03:17:33;;;;;;;28.50;15.50;;;1.90;99.90;;;;;;5074028;28;20188;-57
2023/01/23 03:19:58;;;;;;;27.83;16.33;;;1.70;99.90;;;;;;5073044;28;20220;-57
2023/01/23 03:22:25;;;;;;;29.20;16.40;;;2.10;99.90;;;;;;5073196;28;20226;-58
2023/01/23 03:24:51;;;;;;;28.40;16.10;;;1.90;99.90;;;;;;5075406;28;20208;-58
2023/01/23 03:27:16;;;;;;;29.37;16.20;;;2.00;99.90;;;;;;5090298;28;20207;-58
2023/01/23 03:32:28;;;;;;;25.43;14.73;;;1.90;99.90;;;;;;5073524;28;20178;-57
2023/01/23 03:34:54;;;;;;;32.53;16.67;;;2.10;99.90;;;;;;5073160;28;20184;-58
2023/01/23 03:37:19;;;;;;;28.17;15.63;;;1.90;99.90;;;;;;5073148;28;20174;-57
2023/01/23 03:42:33;;;;;;;29.70;16.33;;;1.90;99.90;;;;;;5073387;28;20219;-57
2023/01/23 03:44:59;;;;;;;26.30;15.47;;;2.00;99.90;;;;;;5073130;28;20175;-57
2023/01/23 03:47:25;;;;;;;28.43;15.40;;;;;;;;;;5072871;28;20164;-57
2023/01/23 03:49:51;;;;;;;35.77;15.67;;;2.10;99.90;;;;;;5072711;28;20210;-57
2023/01/23 03:52:17;;;;;;;28.93;15.40;;;;;;;;;;5072634;28;20184;-57
2023/01/23 03:54:42;;;;;;;27.20;14.97;;;1.90;99.90;;;;;;5074062;28;20529;-57
2023/01/23 03:57:09;;;;;;;23.37;14.60;;;2.00;99.90;;;;;;5067393;28;20196;-57
2023/01/23 03:59:35;;;;;;;27.53;15.17;;;2.00;99.90;;;;;;5071218;28;20173;-57
2023/01/23 04:02:03;;;;;;;27.67;15.53;;;2.00;99.90;;;;;;5070311;28;20207;-57
2023/01/23 04:04:30;;;;;;;32.07;15.77;;;4.00;99.90;;;;;;5056929;28;20177;-57
2023/01/23 04:06:56;;;;;;;26.87;15.10;;;1.80;99.90;;;;;;5069524;28;20647;-57
2023/01/23 04:09:26;;;;;;;23.97;14.90;;;1.90;99.90;;;;;;5072606;28;20180;-57
2023/01/23 04:11:55;;;;;;;26.10;15.50;;;2.00;99.90;;;;;;5072145;28;20228;-57
2023/01/23 04:14:22;;;;;;;25.23;14.70;;;1.90;99.90;;;;;;5077195;28;20184;-57
2023/01/23 04:16:47;;;;;;;26.33;15.37;;;1.90;99.90;;;;;;5075609;28;20191;-56
2023/01/23 04:19:13;;;;;;;25.60;15.37;;;1.70;99.90;;;;;;5081108;28;20504;-57
2023/01/23 04:21:39;;;;;;;26.50;14.57;;;1.70;99.90;;;;;;5078646;28;20182;-57
2023/01/23 04:24:05;;;;;;;26.60;15.70;;;1.90;99.90;;;;;;5091707;28;20195;-57
2023/01/23 04:26:33;;;;;;;26.07;14.47;;;1.80;99.90;;;;;;5078127;28;20220;-57
2023/01/23 04:28:58;;;;;;;26.23;15.37;;;2.00;99.90;;;;;;5072178;28;20617;-57
2023/01/23 04:31:24;;;;;;;22.60;14.50;;;1.80;99.90;;;;;;5070004;28;20303;-57
2023/01/23 04:33:49;;;;;;;27.33;14.17;;;1.80;99.90;;;;;;5081491;28;20267;-56
2023/01/23 04:36:16;;;;;;;27.43;14.97;;;1.80;99.90;;;;;;5080662;28;20188;-56
2023/01/23 04:38:41;;;;;;;24.93;14.37;;;1.70;99.90;;;;;;5072019;28;20192;-55
2023/01/23 04:41:08;;;;;;;22.27;13.83;;;1.80;99.90;;;;;;5071763;28;20177;-56
2023/01/23 04:43:34;;;;;;;27.53;14.73;;;1.70;99.90;;;;;;5079834;28;20188;-56
2023/01/23 04:46:00;;;;;;;28.63;15.00;;;;;;;;;;5080341;28;20185;-56
2023/01/23 04:48:26;;;;;;;23.23;14.30;;;1.60;99.90;;;;;;5071661;28;20161;-56
2023/01/23 04:50:52;;;;;;;27.77;15.57;;;1.30;99.90;;;;;;5071235;28;20208;-55
2023/01/23 04:53:18;;;;;;;25.10;14.13;;;1.80;99.90;;;;;;5076123;28;20172;-55
2023/01/23 04:55:47;;;;;;;31.57;14.67;;;1.50;99.90;;;;;;5091767;28;20635;-55
2023/01/23 04:58:12;;;;;;;25.47;15.00;;;1.70;99.90;;;;;;5091575;28;20195;-55
2023/01/23 05:00:38;;;;;;;29.10;15.27;;;1.60;99.90;;;;;;5072740;28;20284;-55
2023/01/23 05:03:04;;;;;;;25.47;14.90;;;2.20;99.90;;;;;;5081731;28;20601;-55
2023/01/23 05:05:31;;;;;;;27.67;15.03;;;1.70;99.90;;;;;;5061298;28;20181;-55
2023/01/23 05:07:56;;;;;;;25.07;14.20;;;1.70;99.90;;;;;;5051234;28;20197;-55
2023/01/23 05:10:22;;;;;;;24.37;13.87;;;1.50;99.90;;;;;;5050301;28;20212;-55
2023/01/23 05:12:48;;;;;;;25.23;14.13;;;1.70;99.90;;;;;;5063844;28;20658;-55
2023/01/23 05:15:14;;;;;;;22.37;14.23;;;0.80;99.90;;;;;;5074086;28;20653;-55
2023/01/23 05:17:39;;;;;;;24.07;13.67;;;1.90;99.90;;;;;;5070925;28;20188;-55
2023/01/23 05:20:06;;;;;;;25.07;14.00;;;1.70;99.90;;;;;;5071814;28;20220;-55
2023/01/23 05:22:32;;;;;;;25.10;13.73;;;1.80;99.90;;;;;;5082262;28;20611;-55
2023/01/23 05:24:59;;;;;;;24.73;13.30;;;1.60;99.90;;;;;;5070695;28;20200;-54
2023/01/23 05:27:25;;;;;;;25.20;13.83;;;;;;;;;;5083385;28;20243;-56
2023/01/23 05:29:51;;;;;;;25.03;13.47;;;1.70;99.90;;;;;;5081422;28;20206;-56
2023/01/23 05:32:16;;;;;;;24.00;13.90;;;1.70;99.90;;;;;;5071777;28;20208;-56
2023/01/23 05:34:42;;;;;;;24.43;13.63;;;1.80;99.90;;;;;;5086140;28;20703;-56
2023/01/23 05:37:07;;;;;;;21.10;13.37;;;1.80;99.90;;;;;;5075937;28;20188;-56
2023/01/23 05:39:33;;;;;;;21.13;13.30;;;1.70;99.90;;;;;;5053120;28;20647;-56
2023/01/23 05:41:59;;;;;;;29.87;13.17;;;1.70;99.90;;;;;;5070561;28;20234;-56
2023/01/23 05:44:25;;;;;;;21.63;13.03;;;1.70;99.90;;;;;;5084320;28;20679;-56
2023/01/23 05:46:50;;;;;;;23.90;13.97;;;1.70;99.90;;;;;;5073378;28;20216;-56
2023/01/23 05:49:16;;;;;;;25.77;13.40;;;1.80;99.90;;;;;;5070183;28;20188;-55
2023/01/23 05:51:42;;;;;;;26.03;13.87;;;1.70;99.90;;;;;;5089910;28;20238;-55
2023/01/23 05:54:09;;;;;;;24.07;12.80;;;1.70;99.90;;;;;;5080208;28;20172;-55
2023/01/23 05:56:35;;;;;;;25.93;13.80;;;1.70;99.90;;;;;;5070353;28;20572;-56
2023/01/23 05:59:02;;;;;;;22.37;12.97;;;2.00;99.90;;;;;;5069511;28;20168;-56
2023/01/23 06:01:28;;;;;;;23.37;12.97;;;1.50;99.90;;;;;;5055026;28;20188;-56
2023/01/23 06:03:54;;;;;;;22.77;13.00;;;;;;;;;;5076987;28;20370;-57
2023/01/23 06:06:20;;;;;;;25.53;13.33;;;1.70;99.90;;;;;;5077181;28;20184;-57
2023/01/23 06:08:45;;;;;;;24.00;13.27;;;1.60;99.90;;;;;;5068356;28;20233;-56
2023/01/23 06:11:11;;;;;;;24.70;13.40;;;1.30;99.90;;;;;;5069521;28;20702;-56
2023/01/23 06:13:36;;;;;;;22.03;13.23;;;1.60;99.90;;;;;;5069006;28;20180;-56
2023/01/23 06:16:02;;;;;;;23.97;13.40;;;1.50;99.90;;;;;;5073146;28;20255;-56
2023/01/23 06:18:28;;;;;;;26.80;14.00;;;1.40;99.90;;;;;;5090418;28;20531;-56
2023/01/23 06:20:58;;;;;;;21.73;13.50;;;1.30;99.90;;;;;;5090056;28;20226;-56
2023/01/23 06:23:24;;;;;;;23.00;13.77;;;1.50;99.90;;;;;;5090188;28;20650;-57
2023/01/23 06:25:49;;;;;;;24.57;13.60;;;1.50;99.90;;;;;;5086059;28;20184;-56
2023/01/23 06:28:15;;;;;;;26.53;13.63;;;1.60;99.90;;;;;;5070206;28;20172;-56
2023/01/23 06:30:40;;;;;;;25.70;14.00;;;1.30;99.90;;;;;;5079731;28;20329;-56
2023/01/23 06:33:06;;;;;;;22.30;13.67;;;1.50;99.90;;;;;;5077350;28;20176;-56
2023/01/23 06:35:31;;;;;;;26.47;14.17;;;1.40;99.90;;;;;;5082529;28;20237;-56
2023/01/23 06:37:57;;;;;;;23.23;14.50;;;1.20;99.90;;;;;;5083865;28;20665;-56
2023/01/23 06:40:23;;;;;;;26.03;14.33;;;1.10;99.90;;;;;;5085040;28;20188;-56
2023/01/23 06:42:49;;;;;;;27.77;14.13;;;1.40;99.90;;;;;;5072581;28;20241;-56
2023/01/23 06:45:15;;;;;;;26.40;15.13;;;1.10;99.90;;;;;;5080782;28;20637;-56
2023/01/23 06:47:41;;;;;;;29.57;14.77;;;1.70;99.90;;;;;;5079078;28;20188;-56
2023/01/23 06:50:07;;;;;;;25.53;15.00;;;1.10;99.90;;;;;;5071946;28;20259;-56
2023/01/23 06:52:33;;;;;;;29.87;15.00;;;1.50;99.90;;;;;;5069449;28;20189;-56
2023/01/23 06:54:58;;;;;;;27.03;14.93;;;1.60;99.90;;;;;;5069736;28;20175;-56
2023/01/23 06:57:24;;;;;;;30.07;14.53;;;1.50;99.90;;;;;;5076467;28;20252;-56
2023/01/23 06:59:50;;;;;;;31.00;15.57;;;1.70;99.90;;;;;;5078750;28;20181;-56
2023/01/23 07:02:16;;;;;;;25.87;15.23;;;;;;;;;;5067936;28;20504;-56
2023/01/23 07:04:41;;;;;;;26.97;14.77;;;1.40;99.90;;;;;;5052189;28;20205;-56
2023/01/23 07:07:07;;;;;;;24.90;15.40;;;1.60;99.90;;;;;;5064401;28;20234;-56
2023/01/23 07:09:33;;;;;;;24.67;14.80;;;1.30;99.90;;;;;;5069558;28;20184;-56
2023/01/23 07:11:58;;;;;;;28.60;16.53;;;1.40;99.90;;;;;;5070581;28;20708;-56
2023/01/23 07:14:26;;;;;;;26.03;14.67;;;0.90;99.90;;;;;;5069465;28;20203;-56
2023/01/23 07:16:54;;;;;;;25.13;14.63;;;1.40;99.90;;;;;;5071181;28;20188;-56
2023/01/23 07:19:19;;;;;;;25.03;13.73;;;1.60;99.90;;;;;;5089750;28;20219;-56
2023/01/23 07:21:47;;;;;;;24.27;13.80;;;1.50;99.90;;;;;;5079648;28;20549;-56
2023/01/23 07:24:13;;;;;;;23.43;13.93;;;1.30;99.90;;;;;;5084083;28;20285;-56
2023/01/23 07:26:38;;;;;;;25.30;14.47;;;1.20;99.90;;;;;;5086949;28;20187;-56
2023/01/23 07:29:05;;;;;;;27.57;15.07;;;1.40;99.90;;;;;;5073017;28;20226;-55
2023/01/23 07:31:31;;;;;;;24.90;14.13;;;1.10;99.90;;;;;;5076671;28;22011;-55
2023/01/23 07:33:57;;;;;;;25.30;13.53;;;;;;;;;;5081561;28;20221;-55
2023/01/23 07:36:23;;;;;;;23.73;14.10;;;1.30;99.90;;;;;;5073198;28;20267;-55
2023/01/23 07:38:48;;;;;;;24.37;14.13;;;1.20;99.90;;;;;;5072912;28;20180;-55
2023/01/23 07:41:14;;;;;;;26.43;14.13;;;1.30;99.90;;;;;;5073148;28;20185;-56
2023/01/23 07:43:39;;;;;;;22.73;13.80;;;1.30;99.90;;;;;;5072650;28;20238;-55
2023/01/23 07:46:05;;;;;;;27.20;14.77;;;1.20;99.90;;;;;;5072871;28;20251;-55
2023/01/23 07:48:31;;;;;;;28.97;14.70;;;1.10;99.90;;;;;;5073016;28;20261;-55
2023/01/23 07:51:01;;;;;;;25.27;14.47;;;1.30;99.90;;;;;;5072441;28;20219;-55
2023/01/23 07:53:27;;;;;;;24.63;13.87;;;1.10;99.90;;;;;;5088347;28;20568;-56
2023/01/23 07:55:53;;;;;;;25.93;14.67;;;;;;;;;;5055776;28;20265;-56
2023/01/23 07:58:19;;;;;;;23.23;13.80;;;1.20;99.90;;;;;;5073305;28;20231;-56
2023/01/23 08:00:44;;;;;;;27.20;14.43;;;1.40;99.90;;;;;;5073735;28;20592;-56
2023/01/23 08:03:10;;;;;;;30.90;15.23;;;1.40;99.90;;;;;;5074225;28;20180;-58
2023/01/23 08:05:36;;;;;;;27.40;15.63;;;;;;;;;;5076557;28;20200;-57
2023/01/23 08:08:02;;;;;;;29.33;16.17;;;1.70;99.90;;;;;;5062070;28;20297;-55
2023/01/23 08:10:27;;;;;;;27.53;15.00;;;1.70;99.90;;;;;;5070181;28;20386;-56
2023/01/23 08:12:53;;;;;;;27.03;15.23;;;;;;;;;;5068777;28;20533;-56
2023/01/23 08:15:19;;;;;;;23.93;14.43;;;1.70;99.90;;;;;;5073292;28;20177;-56
2023/01/23 08:17:45;;;;;;;27.80;15.17;;;1.90;99.90;;;;;;5079053;28;20176;-56
2023/01/23 08:20:10;;;;;;;23.20;14.30;;;1.90;99.90;;;;;;5091366;28;20241;-55
2023/01/23 08:22:39;;;;;;;24.23;14.53;;;2.00;99.90;;;;;;5077025;28;20208;-56
2023/01/23 08:25:08;;;;;;;25.47;14.27;;;1.80;99.90;;;;;;5073160;28;20180;-55
2023/01/23 08:27:34;;;;;;;23.67;13.23;;;1.80;99.90;;;;;;5058658;28;20191;-56
2023/01/23 08:30:00;;;;;;;22.17;13.10;;;;;;;;;;5087912;28;20259;-53
2023/01/23 08:32:26;;;;;;;26.40;13.40;;;1.90;99.90;;;;;;5075794;28;20628;-53
2023/01/23 08:34:53;;;;;;;24.03;13.40;;;2.10;99.90;;;;;;5084093;28;20175;-53
2023/01/23 08:37:18;;;;;;;23.37;13.50;;;2.10;99.90;;;;;;5070861;28;20176;-53
2023/01/23 08:39:44;;;;;;;23.17;12.27;;;1.90;99.90;;;;;;5072460;28;20516;-55
2023/01/23 08:42:09;;;;;;;21.83;12.93;;;1.80;99.90;;;;;;5083091;28;20191;-56
2023/01/23 08:44:35;;;;;;;25.87;13.20;;;2.10;99.90;;;;;;5071694;28;20203;-56
2023/01/23 08:47:02;;;;;;;22.47;12.77;;;2.20;99.90;;;;;;5070127;28;20521;-57
2023/01/23 08:49:28;;;;;;;24.53;12.77;;;2.10;99.90;;;;;;5070192;28;20644;-56
2023/01/23 08:51:53;;;;;;;22.47;13.33;;;2.00;99.90;;;;;;5071280;28;20234;-56
2023/01/23 08:54:19;;;;;;;26.20;13.80;;;;;;;;;;5070871;28;20542;-56
2023/01/23 08:56:45;;;;;;;26.03;13.50;;;1.60;99.90;;;;;;5077044;28;20211;-55
2023/01/23 08:59:11;;;;;;;30.37;13.73;;;2.10;99.90;;;;;;5091720;28;20176;-55
2023/01/23 09:01:36;;;;;;;26.33;14.20;;;2.30;99.90;;;;;;5056519;28;20208;-55
2023/01/23 09:04:02;;;;;;;24.50;13.30;;;1.90;99.90;;;;;;5051515;28;20173;-55
2023/01/23 09:06:28;;;;;;;25.67;14.30;;;;;;;;;;5051891;28;20180;-55
2023/01/23 09:08:54;;;;;;;30.13;13.60;;;2.10;99.90;;;;;;5051383;28;20267;-55
2023/01/23 09:11:21;;;;;;;29.03;14.73;;;2.10;99.90;;;;;;5056723;28;20686;-55
2023/01/23 09:13:47;;;;;;;25.13;14.43;;;2.50;99.90;;;;;;5071412;28;20183;-57
2023/01/23 09:16:13;;;;;;;24.43;13.70;;;4.50;99.90;;;;;;5072340;28;20555;-56
2023/01/23 09:18:38;;;;;;;24.37;13.57;;;3.10;99.90;;;;;;5073312;28;20176;-56
2023/01/23 09:21:06;;;;;;;25.60;14.00;;;2.90;99.90;;;;;;5070894;28;20273;-56
2023/01/23 09:23:32;;;;;;;24.77;12.97;;;;;;;;;;5071030;28;20177;-56
2023/01/23 09:26:07;;;;;;;21.63;12.43;;;3.00;99.90;;;;;;5070876;28;20650;-56
2023/01/23 09:28:34;;;;;;;24.93;13.10;;;3.00;99.90;;;;;;5061934;28;20175;-56
2023/01/23 09:31:06;;;;;;;21.17;12.00;;;3.20;99.90;;;;;;5070942;28;20234;-55
2023/01/23 09:33:32;;;;;;;26.43;13.83;;;3.30;99.90;;;;;;5070995;28;20325;-57
2023/01/23 09:35:58;;;;;;;26.00;13.83;;;3.00;99.90;;;;;;5074577;28;20542;-57
2023/01/23 09:38:23;;;;;;;24.70;14.43;;;3.10;99.90;;;;;;5071843;28;20172;-57
2023/01/23 09:40:52;;;;;;;23.20;11.80;;;3.30;99.90;;;;;;5070954;28;20213;-56
2023/01/23 09:43:23;;;;;;;27.03;13.43;;;3.90;99.90;;;;;;5070893;28;20164;-56
2023/01/23 09:46:02;;;;;;;21.87;12.20;;;3.80;99.90;;;;;;5073737;28;20220;-56
2023/01/23 09:48:58;;;;;;;22.00;11.33;;;4.30;99.90;;;;;;5073197;28;20194;-56
2023/01/23 09:51:55;;;;;;;18.77;10.97;;;4.60;99.90;;;;;;5070122;28;20223;-57
2023/01/23 09:54:38;;;;;;;16.93;10.10;;;4.90;99.90;;;;;;5070431;28;20189;-57
2023/01/23 09:57:18;;;;;;;21.30;10.20;;;5.30;99.90;;;;;;5062965;28;20200;-58
2023/01/23 09:59:50;;;;;;;17.57;9.13;;;5.10;99.90;;;;;;5062874;28;20171;-58
2023/01/23 10:02:18;;;;;;;16.97;9.47;;;5.60;99.90;;;;;;5050977;28;20192;-57
2023/01/23 10:04:46;;;;;;;18.00;8.80;;;5.70;99.90;;;;;;5050319;28;20173;-57
2023/01/23 10:07:26;;;;;;;16.83;7.97;;;6.00;99.90;;;;;;5055963;28;20172;-57
2023/01/23 10:10:19;;;;;;;11.90;7.40;;;6.40;99.90;;;;;;5081658;28;20184;-57
2023/01/23 10:12:56;;;;;;;17.43;7.20;;;5.90;99.90;;;;;;5070615;28;20188;-58
2023/01/23 10:15:48;;;;;;;13.40;7.43;;;5.90;99.90;;;;;;5070657;28;20180;-57
2023/01/23 10:18:39;;;;;;;10.93;6.33;;;5.70;99.90;;;;;;5070605;28;20172;-57
2023/01/23 10:21:28;;;;;;;16.53;7.10;;;5.60;99.90;;;;;;5073258;28;20710;-57
2023/01/23 10:24:07;;;;;;;11.07;6.60;;;5.80;99.90;;;;;;5070348;28;20596;-56
2023/01/23 10:26:41;;;;;;;15.40;6.60;;;5.80;99.90;;;;;;5070524;28;20181;-56
2023/01/23 10:29:22;;;;;;;13.23;6.80;;;6.30;99.90;;;;;;5072127;28;20157;-56
2023/01/23 10:32:00;;;;;;;9.43;6.00;;;6.60;99.90;;;;;;5090589;28;20217;-56
2023/01/23 10:34:44;;;;;;;9.90;5.97;;;6.60;99.90;;;;;;5090427;28;20164;-56
2023/01/23 10:37:28;;;;;;;9.87;6.10;;;6.20;99.90;;;;;;5090430;28;20167;-56
2023/01/23 10:40:02;;;;;;;14.50;6.43;;;6.30;99.90;;;;;;5082058;28;20172;-56
2023/01/23 10:42:28;;;;;;;9.90;6.57;;;7.40;99.90;;;;;;5070380;28;20241;-56
2023/01/23 10:44:54;;;;;;;13.23;6.30;;;7.60;99.90;;;;;;5070330;28;20263;-57
2023/01/23 10:47:33;;;;;;;10.17;5.63;;;7.40;99.90;;;;;;5081873;28;20172;-56
2023/01/23 10:49:59;;;;;;;10.97;5.67;;;7.00;99.90;;;;;;5081709;28;20176;-56
2023/01/23 10:52:44;;;;;;;10.77;5.47;;;6.90;99.90;;;;;;5059527;28;20208;-56
2023/01/23 10:55:19;;;;;;;11.47;5.87;;;7.20;99.90;;;;;;5052220;28;20600;-56
2023/01/23 10:57:47;;;;;;;13.43;5.97;;;7.20;99.90;;;;;;5064969;28;20180;-56
2023/01/23 11:00:22;;;;;;;8.83;5.43;;;7.20;99.90;;;;;;5054646;28;20263;-56
2023/01/23 11:02:48;;;;;;;8.83;5.30;;;6.60;99.90;;;;;;5054101;28;20192;-56
2023/01/23 11:05:40;;;;;;;10.23;6.03;;;6.00;99.90;;;;;;5054005;28;20604;-57
2023/01/23 11:08:37;;;;;;;15.00;6.77;;;6.50;99.90;;;;;;5070528;28;20718;-56
2023/01/23 11:11:15;;;;;;;9.70;5.80;;;6.30;99.90;;;;;;5072759;28;20208;-56
2023/01/23 11:13:42;;;;;;;10.20;5.97;;;6.90;99.90;;;;;;5073761;28;20627;-56
2023/01/23 11:16:14;;;;;;;11.40;6.10;;;6.70;99.90;;;;;;5074423;28;20180;-56
2023/01/23 11:18:43;;;;;;;16.43;7.00;;;6.70;99.90;;;;;;5093789;28;20207;-55
2023/01/23 11:21:28;;;;;;;10.30;6.13;;;6.50;99.90;;;;;;5075265;28;20224;-57
2023/01/23 11:24:29;;;;;;;10.17;6.07;;;6.50;99.90;;;;;;5089926;28;20180;-55
2023/01/23 11:27:14;;;;;;;11.40;6.50;;;6.50;99.90;;;;;;5092093;28;20507;-56
2023/01/23 11:30:12;;;;;;;11.40;6.63;;;6.50;99.90;;;;;;5078541;28;20172;-55
2023/01/23 11:32:54;;;;;;;10.17;5.63;;;6.90;99.90;;;;;;5073317;28;20184;-56
2023/01/23 11:35:33;;;;;;;9.80;6.40;;;7.30;99.90;;;;;;5073313;28;20168;-57
2023/01/23 11:38:02;;;;;;;11.13;6.60;;;7.90;99.90;;;;;;5075723;28;20631;-55
2023/01/23 11:40:28;;;;;;;10.77;6.10;;;7.80;99.90;;;;;;5093614;28;20306;-58
2023/01/23 11:42:54;;;;;;;11.03;6.10;;;8.20;99.90;;;;;;5083763;28;20671;-58
2023/01/23 11:45:42;;;;;;;13.73;6.80;;;8.80;99.90;;;;;;5072073;28;20642;-56
2023/01/23 11:48:40;;;;;;;10.93;5.90;;;10.70;99.90;;;;;;5066258;28;20205;-56
2023/01/23 11:51:33;;;;;;;9.80;5.60;;;11.10;99.90;;;;;;5071087;28;20334;-57
2023/01/23 11:54:24;;;;;;;10.27;6.30;;;11.20;99.90;;;;;;5078209;28;20188;-57
2023/01/23 11:57:02;;;;;;;17.03;6.10;;;10.80;99.90;;;;;;5075771;28;21609;-57
2023/01/23 12:00:05;;;;;;;10.90;5.17;;;12.90;99.90;;;;;;5072681;28;20176;-57
2023/01/23 12:02:57;;;;;;;9.88;5.80;;;12.90;99.90;;;;;;5072813;28;20277;-57
2023/01/23 12:05:57;;;;;;;11.02;5.43;;;14.20;99.90;;;;;;5072780;28;20176;-56
2023/01/23 12:08:22;;;;;;;7.57;5.22;;;14.60;99.90;;;;;;5072903;28;20665;-59
2023/01/23 12:11:11;;;;;;;8.27;5.20;;;13.50;99.90;;;;;;5072549;28;20370;-57
2023/01/23 12:13:48;;;;;;;8.95;5.15;;;11.60;99.90;;;;;;5072812;28;20167;-58
2023/01/23 12:16:14;;;;;;;11.90;5.38;;;11.70;99.90;;;;;;5072643;28;20491;-57
2023/01/23 12:18:46;;;;;;;8.63;5.18;;;13.00;99.90;;;;;;5072499;28;20184;-56
2023/01/23 12:21:14;;;;;;;12.50;5.45;;;14.00;99.90;;;;;;5072562;28;20330;-57
2023/01/23 12:23:58;;;;;;;7.88;5.05;;;14.90;99.90;;;;;;5072384;28;20586;-59
2023/01/23 12:26:27;;;;;;;11.85;5.57;;;13.60;99.90;;;;;;5072418;28;20168;-57
2023/01/23 12:28:56;;;;;;;13.75;5.38;;;;;;;;;;5054463;28;20230;-57
2023/01/23 12:31:39;;;;;;;10.02;4.80;;;19.20;96.80;;;;;;5072326;28;20592;-57
2023/01/23 12:34:29;;;;;;;10.27;5.30;;;19.50;91.30;;;;;;5072295;28;20222;-57
2023/01/23 12:37:31;;;;;;;10.27;4.78;;;20.40;70.50;;;;;;5072280;28;20187;-57
2023/01/23 12:40:00;;;;;;;7.30;4.82;;;19.60;34.90;;;;;;5072316;28;20654;-57
2023/01/23 12:42:28;;;;;;;7.85;4.50;;;19.70;35.40;;;;;;5064756;28;20712;-58
2023/01/23 12:45:22;;;;;;;8.70;4.72;;;20.90;40.30;;;;;;5054236;28;20168;-57
2023/01/23 12:47:53;;;;;;;6.53;4.85;;;21.30;32.80;;;;;;5072109;28;20225;-58
2023/01/23 12:50:40;;;;;;;10.15;5.20;;;21.20;21.10;;;;;;5072082;28;20227;-58
2023/01/23 12:53:11;;;;;;;14.27;5.53;;;20.60;15.90;;;;;;5072013;28;20183;-58
2023/01/23 12:56:14;;;;;;;10.75;5.32;;;20.90;20.20;;;;;;5071987;28;20179;-57
2023/01/23 12:58:49;;;;;;;10.88;5.05;;;21.50;18.50;;;;;;5070537;28;20172;-57
2023/01/23 13:01:20;;;;;;;12.02;4.65;;;22.20;19.50;;;;;;5072008;28;20210;-57
2023/01/23 13:03:56;;;;;;;9.82;4.80;;;22.60;6.20;;;;;;5071762;28;20160;-57
2023/01/23 13:06:48;;;;;;;7.22;5.35;;;21.40;1.00;;;;;;5071709;28;20216;-58